Hilo, Hawaii
Current Conditions -  °F | °C
As of 4:53 AM on Saturday 20 Dec 2014 (Local Time) from PHTO Reporting Station
Scattered Clouds Scattered Clouds  
Wind Chill: 68°   Ceiling: Unl
Heat Index: 68°   Visibility: 10mi
Dew Point: 60°   Wind: 8mph
Humidity: 76%   Direction: 240°WSW
Pressure: 30.04"   Gusts: NA
Location:  19.72°N, 155.08°W
Report Text: PHTO 201453Z 24007KT 10SM FEW030 SCT050 20/16 A3004 RMK AO2 SLP170 60000 T02000156 53001 $
Loading
Personal Weather Stations






























Interactive Weather Map New forecast layout! Learn more

10-Day Weather Forecast

Advertisements
Track Severe Weather on mobile